sensor_id;sensor_type;location;lat;lon;timestamp;P1;durP1;ratioP1;P2;durP2;ratioP2
32242;SDS011;18731;42.830;24.390;2023-07-31T03:01:22;10.60;;;9.25;;
32242;SDS011;18731;42.830;24.390;2023-07-31T03:03:48;12.07;;;8.93;;
32242;SDS011;18731;42.830;24.390;2023-07-31T03:06:13;10.35;;;9.07;;
32242;SDS011;18731;42.830;24.390;2023-07-31T03:08:39;10.60;;;8.00;;
32242;SDS011;18731;42.830;24.390;2023-07-31T03:11:04;11.73;;;8.45;;
32242;SDS011;18731;42.830;24.390;2023-07-31T03:13:30;9.25;;;8.35;;
32242;SDS011;18731;42.830;24.390;2023-07-31T03:15:56;10.52;;;8.23;;
32242;SDS011;18731;42.830;24.390;2023-07-31T03:18:22;12.50;;;8.60;;
32242;SDS011;18731;42.830;24.390;2023-07-31T03:20:47;11.35;;;9.02;;
32242;SDS011;18731;42.830;24.390;2023-07-31T03:23:13;11.02;;;8.35;;
32242;SDS011;18731;42.830;24.390;2023-07-31T03:25:41;10.75;;;9.23;;
32242;SDS011;18731;42.830;24.390;2023-07-31T03:28:20;12.40;;;9.07;;
32242;SDS011;18731;42.830;24.390;2023-07-31T03:30:46;14.80;;;10.15;;
32242;SDS011;18731;42.830;24.390;2023-07-31T03:33:12;10.68;;;9.30;;
32242;SDS011;18731;42.830;24.390;2023-07-31T03:35:37;16.80;;;10.90;;
32242;SDS011;18731;42.830;24.390;2023-07-31T03:38:03;13.10;;;9.80;;
32242;SDS011;18731;42.830;24.390;2023-07-31T03:40:29;16.40;;;9.55;;
32242;SDS011;18731;42.830;24.390;2023-07-31T03:42:55;11.98;;;7.97;;
32242;SDS011;18731;42.830;24.390;2023-07-31T03:45:20;9.85;;;7.85;;
32242;SDS011;18731;42.830;24.390;2023-07-31T03:47:46;12.57;;;7.68;;
32242;SDS011;18731;42.830;24.390;2023-07-31T03:50:12;9.75;;;8.85;;
32242;SDS011;18731;42.830;24.390;2023-07-31T03:52:37;10.43;;;8.75;;
32242;SDS011;18731;42.830;24.390;2023-07-31T03:55:03;15.15;;;10.10;;
32242;SDS011;18731;42.830;24.390;2023-07-31T03:57:29;19.15;;;9.80;;
32242;SDS011;18731;42.830;24.390;2023-07-31T03:59:55;12.60;;;9.30;;
32242;SDS011;18731;42.830;24.390;2023-07-31T04:02:20;12.73;;;8.80;;
32242;SDS011;18731;42.830;24.390;2023-07-31T04:04:46;9.55;;;8.07;;
32242;SDS011;18731;42.830;24.390;2023-07-31T04:07:11;14.13;;;8.10;;
32242;SDS011;18731;42.830;24.390;2023-07-31T04:09:37;8.88;;;7.38;;
32242;SDS011;18731;42.830;24.390;2023-07-31T04:12:03;9.02;;;7.47;;
32242;SDS011;18731;42.830;24.390;2023-07-31T04:14:29;10.73;;;7.90;;
32242;SDS011;18731;42.830;24.390;2023-07-31T04:16:55;10.23;;;7.22;;
32242;SDS011;18731;42.830;24.390;2023-07-31T04:19:20;10.15;;;7.80;;
32242;SDS011;18731;42.830;24.390;2023-07-31T04:21:46;9.13;;;8.23;;
32242;SDS011;18731;42.830;24.390;2023-07-31T04:24:11;12.98;;;8.50;;
32242;SDS011;18731;42.830;24.390;2023-07-31T04:26:37;13.00;;;8.73;;
32242;SDS011;18731;42.830;24.390;2023-07-31T04:29:03;9.77;;;8.73;;
32242;SDS011;18731;42.830;24.390;2023-07-31T04:31:28;15.02;;;9.50;;
32242;SDS011;18731;42.830;24.390;2023-07-31T04:33:54;9.63;;;8.63;;
32242;SDS011;18731;42.830;24.390;2023-07-31T04:36:20;13.93;;;8.75;;
32242;SDS011;18731;42.830;24.390;2023-07-31T04:38:45;13.77;;;8.50;;
32242;SDS011;18731;42.830;24.390;2023-07-31T04:41:11;19.50;;;8.48;;
32242;SDS011;18731;42.830;24.390;2023-07-31T04:43:37;13.57;;;10.02;;
32242;SDS011;18731;42.830;24.390;2023-07-31T04:46:05;11.20;;;9.55;;
32242;SDS011;18731;42.830;24.390;2023-07-31T04:48:31;12.80;;;9.82;;
32242;SDS011;18731;42.830;24.390;2023-07-31T04:50:56;11.73;;;9.60;;
32242;SDS011;18731;42.830;24.390;2023-07-31T04:53:22;10.95;;;9.30;;
32242;SDS011;18731;42.830;24.390;2023-07-31T04:55:48;13.23;;;10.40;;
32242;SDS011;18731;42.830;24.390;2023-07-31T04:58:14;12.63;;;10.18;;
32242;SDS011;18731;42.830;24.390;2023-07-31T05:00:39;16.17;;;11.10;;
32242;SDS011;18731;42.830;24.390;2023-07-31T05:03:05;12.60;;;10.20;;
32242;SDS011;18731;42.830;24.390;2023-07-31T05:05:32;11.95;;;10.68;;
32242;SDS011;18731;42.830;24.390;2023-07-31T05:07:58;14.35;;;11.73;;
32242;SDS011;18731;42.830;24.390;2023-07-31T05:10:23;13.32;;;11.43;;
32242;SDS011;18731;42.830;24.390;2023-07-31T05:12:49;12.93;;;11.63;;
32242;SDS011;18731;42.830;24.390;2023-07-31T05:15:15;12.80;;;11.18;;
32242;SDS011;18731;42.830;24.390;2023-07-31T05:17:40;11.75;;;10.48;;
32242;SDS011;18731;42.830;24.390;2023-07-31T05:20:06;12.75;;;11.07;;
32242;SDS011;18731;42.830;24.390;2023-07-31T05:22:33;12.60;;;11.05;;
32242;SDS011;18731;42.830;24.390;2023-07-31T05:24:58;13.63;;;9.88;;
32242;SDS011;18731;42.830;24.390;2023-07-31T05:27:25;14.27;;;9.65;;
32242;SDS011;18731;42.830;24.390;2023-07-31T05:29:50;9.80;;;8.80;;
32242;SDS011;18731;42.830;24.390;2023-07-31T05:32:16;10.68;;;8.90;;
32242;SDS011;18731;42.830;24.390;2023-07-31T05:34:42;10.77;;;9.40;;
32242;SDS011;18731;42.830;24.390;2023-07-31T05:37:09;9.38;;;7.97;;
32242;SDS011;18731;42.830;24.390;2023-07-31T05:39:35;8.55;;;7.25;;
32242;SDS011;18731;42.830;24.390;2023-07-31T05:42:01;11.75;;;7.38;;
32242;SDS011;18731;42.830;24.390;2023-07-31T05:44:27;9.80;;;6.80;;
32242;SDS011;18731;42.830;24.390;2023-07-31T05:46:52;8.48;;;7.47;;
32242;SDS011;18731;42.830;24.390;2023-07-31T05:49:18;8.77;;;7.32;;
32242;SDS011;18731;42.830;24.390;2023-07-31T05:51:44;7.90;;;7.00;;
32242;SDS011;18731;42.830;24.390;2023-07-31T05:54:09;9.85;;;6.22;;
32242;SDS011;18731;42.830;24.390;2023-07-31T05:56:35;8.82;;;7.63;;
32242;SDS011;18731;42.830;24.390;2023-07-31T05:59:03;8.45;;;7.25;;
32242;SDS011;18731;42.830;24.390;2023-07-31T06:01:30;8.45;;;7.63;;
32242;SDS011;18731;42.830;24.390;2023-07-31T06:03:55;9.93;;;7.68;;
32242;SDS011;18731;42.830;24.390;2023-07-31T06:06:21;8.13;;;7.15;;
32242;SDS011;18731;42.830;24.390;2023-07-31T06:08:47;7.65;;;6.85;;
32242;SDS011;18731;42.830;24.390;2023-07-31T06:11:12;12.05;;;7.00;;
32242;SDS011;18731;42.830;24.390;2023-07-31T06:13:38;9.57;;;7.05;;
32242;SDS011;18731;42.830;24.390;2023-07-31T06:16:04;10.57;;;8.20;;
32242;SDS011;18731;42.830;24.390;2023-07-31T06:18:34;8.98;;;7.78;;
32242;SDS011;18731;42.830;24.390;2023-07-31T06:21:00;8.80;;;7.90;;
32242;SDS011;18731;42.830;24.390;2023-07-31T06:23:25;13.02;;;7.88;;
32242;SDS011;18731;42.830;24.390;2023-07-31T06:25:51;13.65;;;8.35;;
32242;SDS011;18731;42.830;24.390;2023-07-31T06:28:17;12.85;;;8.55;;
32242;SDS011;18731;42.830;24.390;2023-07-31T06:30:42;9.65;;;8.38;;
32242;SDS011;18731;42.830;24.390;2023-07-31T06:33:08;10.82;;;8.70;;
32242;SDS011;18731;42.830;24.390;2023-07-31T06:35:34;10.70;;;8.35;;
32242;SDS011;18731;42.830;24.390;2023-07-31T06:38:00;12.45;;;9.07;;
32242;SDS011;18731;42.830;24.390;2023-07-31T06:40:27;15.15;;;8.68;;
32242;SDS011;18731;42.830;24.390;2023-07-31T06:42:53;11.02;;;8.00;;
32242;SDS011;18731;42.830;24.390;2023-07-31T06:45:19;13.77;;;8.52;;
32242;SDS011;18731;42.830;24.390;2023-07-31T06:47:44;11.30;;;8.50;;
32242;SDS011;18731;42.830;24.390;2023-07-31T06:50:10;9.23;;;7.50;;
32242;SDS011;18731;42.830;24.390;2023-07-31T06:52:36;10.25;;;8.73;;
32242;SDS011;18731;42.830;24.390;2023-07-31T06:55:02;14.27;;;8.32;;
32242;SDS011;18731;42.830;24.390;2023-07-31T06:57:45;10.05;;;9.00;;
32242;SDS011;18731;42.830;24.390;2023-07-31T07:00:12;9.20;;;8.05;;
32242;SDS011;18731;42.830;24.390;2023-07-31T07:02:38;8.65;;;7.75;;
32242;SDS011;18731;42.830;24.390;2023-07-31T07:05:04;14.02;;;8.63;;
32242;SDS011;18731;42.830;24.390;2023-07-31T07:07:32;9.80;;;8.23;;
32242;SDS011;18731;42.830;24.390;2023-07-31T07:09:57;12.23;;;7.85;;
32242;SDS011;18731;42.830;24.390;2023-07-31T07:12:25;13.00;;;8.55;;
32242;SDS011;18731;42.830;24.390;2023-07-31T07:14:51;8.50;;;7.50;;
32242;SDS011;18731;42.830;24.390;2023-07-31T07:17:18;10.68;;;7.20;;
32242;SDS011;18731;42.830;24.390;2023-07-31T07:19:44;7.88;;;7.07;;
32242;SDS011;18731;42.830;24.390;2023-07-31T07:22:11;11.13;;;7.85;;
32242;SDS011;18731;42.830;24.390;2023-07-31T07:24:37;9.55;;;7.88;;
32242;SDS011;18731;42.830;24.390;2023-07-31T07:27:03;9.48;;;7.53;;
32242;SDS011;18731;42.830;24.390;2023-07-31T07:29:28;8.63;;;7.60;;
32242;SDS011;18731;42.830;24.390;2023-07-31T07:31:54;7.40;;;6.60;;
32242;SDS011;18731;42.830;24.390;2023-07-31T07:34:22;9.40;;;7.03;;
32242;SDS011;18731;42.830;24.390;2023-07-31T07:36:49;11.75;;;7.40;;
32242;SDS011;18731;42.830;24.390;2023-07-31T07:39:15;11.40;;;7.28;;
32242;SDS011;18731;42.830;24.390;2023-07-31T07:41:41;11.20;;;7.20;;
32242;SDS011;18731;42.830;24.390;2023-07-31T07:44:07;9.60;;;6.93;;
32242;SDS011;18731;42.830;24.390;2023-07-31T07:46:33;10.70;;;7.20;;
32242;SDS011;18731;42.830;24.390;2023-07-31T07:48:59;7.72;;;6.82;;
32242;SDS011;18731;42.830;24.390;2023-07-31T07:51:25;7.90;;;6.28;;
32242;SDS011;18731;42.830;24.390;2023-07-31T07:53:50;7.13;;;6.05;;
32242;SDS011;18731;42.830;24.390;2023-07-31T07:56:16;7.47;;;6.10;;
32242;SDS011;18731;42.830;24.390;2023-07-31T07:58:42;8.65;;;6.30;;
32242;SDS011;18731;42.830;24.390;2023-07-31T08:01:08;7.75;;;5.90;;
32242;SDS011;18731;42.830;24.390;2023-07-31T08:03:34;7.47;;;5.13;;
32242;SDS011;18731;42.830;24.390;2023-07-31T08:05:59;7.45;;;5.35;;
32242;SDS011;18731;42.830;24.390;2023-07-31T08:08:26;8.13;;;5.30;;
32242;SDS011;18731;42.830;24.390;2023-07-31T08:10:53;7.43;;;5.43;;
32242;SDS011;18731;42.830;24.390;2023-07-31T08:13:19;5.65;;;4.97;;
32242;SDS011;18731;42.830;24.390;2023-07-31T08:15:44;5.32;;;4.68;;
32242;SDS011;18731;42.830;24.390;2023-07-31T08:18:11;5.65;;;3.97;;
32242;SDS011;18731;42.830;24.390;2023-07-31T08:20:37;6.72;;;3.90;;
32242;SDS011;18731;42.830;24.390;2023-07-31T08:23:03;8.85;;;4.15;;
32242;SDS011;18731;42.830;24.390;2023-07-31T08:25:29;4.13;;;3.40;;
32242;SDS011;18731;42.830;24.390;2023-07-31T08:27:55;4.22;;;3.83;;
32242;SDS011;18731;42.830;24.390;2023-07-31T08:30:21;7.03;;;3.38;;
32242;SDS011;18731;42.830;24.390;2023-07-31T08:32:47;3.95;;;3.55;;
32242;SDS011;18731;42.830;24.390;2023-07-31T08:35:12;6.85;;;3.72;;
32242;SDS011;18731;42.830;24.390;2023-07-31T08:37:38;4.90;;;3.38;;
32242;SDS011;18731;42.830;24.390;2023-07-31T08:40:04;3.22;;;2.92;;
32242;SDS011;18731;42.830;24.390;2023-07-31T08:42:32;4.20;;;3.60;;
32242;SDS011;18731;42.830;24.390;2023-07-31T08:44:59;3.80;;;3.40;;
32242;SDS011;18731;42.830;24.390;2023-07-31T08:47:25;6.05;;;3.17;;
32242;SDS011;18731;42.830;24.390;2023-07-31T08:49:53;3.72;;;3.20;;
32242;SDS011;18731;42.830;24.390;2023-07-31T08:52:21;4.55;;;2.88;;
32242;SDS011;18731;42.830;24.390;2023-07-31T08:54:47;3.97;;;3.38;;
32242;SDS011;18731;42.830;24.390;2023-07-31T08:57:13;3.10;;;2.80;;
32242;SDS011;18731;42.830;24.390;2023-07-31T08:59:40;3.10;;;2.80;;
32242;SDS011;18731;42.830;24.390;2023-07-31T09:02:07;20.40;;;8.07;;
32242;SDS011;18731;42.830;24.390;2023-07-31T09:04:33;13.30;;;6.13;;
32242;SDS011;18731;42.830;24.390;2023-07-31T09:07:02;9.88;;;4.90;;
32242;SDS011;18731;42.830;24.390;2023-07-31T09:09:32;10.43;;;5.10;;
32242;SDS011;18731;42.830;24.390;2023-07-31T09:11:58;8.20;;;4.20;;
32242;SDS011;18731;42.830;24.390;2023-07-31T09:14:24;16.95;;;5.13;;
32242;SDS011;18731;42.830;24.390;2023-07-31T09:16:58;5.20;;;2.65;;
32242;SDS011;18731;42.830;24.390;2023-07-31T09:19:35;3.43;;;2.70;;
32242;SDS011;18731;42.830;24.390;2023-07-31T09:22:07;5.65;;;2.78;;
32242;SDS011;18731;42.830;24.390;2023-07-31T09:24:33;2.60;;;2.40;;
32242;SDS011;18731;42.830;24.390;2023-07-31T09:27:00;3.40;;;2.60;;
32242;SDS011;18731;42.830;24.390;2023-07-31T09:29:27;3.67;;;2.58;;
32242;SDS011;18731;42.830;24.390;2023-07-31T09:31:55;5.95;;;2.90;;
32242;SDS011;18731;42.830;24.390;2023-07-31T09:34:28;7.50;;;2.58;;
32242;SDS011;18731;42.830;24.390;2023-07-31T09:36:57;2.40;;;1.95;;
32242;SDS011;18731;42.830;24.390;2023-07-31T09:39:27;2.88;;;2.22;;
32242;SDS011;18731;42.830;24.390;2023-07-31T09:41:55;3.47;;;2.25;;
32242;SDS011;18731;42.830;24.390;2023-07-31T09:44:21;2.40;;;2.20;;
32242;SDS011;18731;42.830;24.390;2023-07-31T09:47:02;4.18;;;2.08;;
32242;SDS011;18731;42.830;24.390;2023-07-31T09:49:28;2.42;;;2.22;;
32242;SDS011;18731;42.830;24.390;2023-07-31T09:51:54;3.45;;;2.20;;
32242;SDS011;18731;42.830;24.390;2023-07-31T09:54:20;2.60;;;2.40;;
32242;SDS011;18731;42.830;24.390;2023-07-31T09:56:46;10.95;;;2.42;;
32242;SDS011;18731;42.830;24.390;2023-07-31T09:59:14;4.45;;;2.20;;
32242;SDS011;18731;42.830;24.390;2023-07-31T10:01:42;3.50;;;2.00;;
32242;SDS011;18731;42.830;24.390;2023-07-31T10:04:12;3.35;;;2.50;;
32242;SDS011;18731;42.830;24.390;2023-07-31T10:06:44;3.20;;;2.53;;
32242;SDS011;18731;42.830;24.390;2023-07-31T10:09:12;3.47;;;2.60;;
32242;SDS011;18731;42.830;24.390;2023-07-31T10:11:46;2.80;;;2.60;;
32242;SDS011;18731;42.830;24.390;2023-07-31T10:14:19;2.92;;;2.50;;
32242;SDS011;18731;42.830;24.390;2023-07-31T10:16:46;2.38;;;2.05;;
32242;SDS011;18731;42.830;24.390;2023-07-31T10:19:12;3.30;;;2.33;;
32242;SDS011;18731;42.830;24.390;2023-07-31T10:21:38;2.17;;;1.98;;
32242;SDS011;18731;42.830;24.390;2023-07-31T10:24:05;2.50;;;2.30;;
32242;SDS011;18731;42.830;24.390;2023-07-31T10:26:31;2.35;;;2.15;;
32242;SDS011;18731;42.830;24.390;2023-07-31T10:28:59;3.78;;;2.42;;
32242;SDS011;18731;42.830;24.390;2023-07-31T10:31:25;3.08;;;2.22;;
32242;SDS011;18731;42.830;24.390;2023-07-31T10:33:52;6.22;;;2.20;;
32242;SDS011;18731;42.830;24.390;2023-07-31T10:36:19;2.70;;;2.30;;
32242;SDS011;18731;42.830;24.390;2023-07-31T10:38:45;4.10;;;2.25;;
32242;SDS011;18731;42.830;24.390;2023-07-31T10:41:16;2.88;;;2.40;;
32242;SDS011;18731;42.830;24.390;2023-07-31T10:43:41;5.82;;;2.30;;
32242;SDS011;18731;42.830;24.390;2023-07-31T10:46:08;3.38;;;2.45;;
32242;SDS011;18731;42.830;24.390;2023-07-31T10:48:36;2.63;;;2.15;;
32242;SDS011;18731;42.830;24.390;2023-07-31T10:51:10;4.25;;;2.40;;
32242;SDS011;18731;42.830;24.390;2023-07-31T10:53:37;2.92;;;2.53;;
32242;SDS011;18731;42.830;24.390;2023-07-31T10:56:09;3.80;;;2.40;;
32242;SDS011;18731;42.830;24.390;2023-07-31T10:58:39;3.58;;;2.75;;
32242;SDS011;18731;42.830;24.390;2023-07-31T11:01:05;4.20;;;2.30;;
32242;SDS011;18731;42.830;24.390;2023-07-31T11:03:50;5.13;;;2.60;;
32242;SDS011;18731;42.830;24.390;2023-07-31T11:06:19;4.47;;;2.58;;
32242;SDS011;18731;42.830;24.390;2023-07-31T11:08:45;2.90;;;2.47;;
32242;SDS011;18731;42.830;24.390;2023-07-31T11:11:13;5.40;;;2.50;;
32242;SDS011;18731;42.830;24.390;2023-07-31T11:13:44;6.72;;;2.50;;
32242;SDS011;18731;42.830;24.390;2023-07-31T11:16:11;5.53;;;2.53;;
32242;SDS011;18731;42.830;24.390;2023-07-31T11:18:38;3.22;;;2.40;;
32242;SDS011;18731;42.830;24.390;2023-07-31T11:21:08;3.50;;;2.53;;
32242;SDS011;18731;42.830;24.390;2023-07-31T11:23:38;2.60;;;2.40;;
32242;SDS011;18731;42.830;24.390;2023-07-31T11:26:05;2.42;;;2.22;;
32242;SDS011;18731;42.830;24.390;2023-07-31T11:28:32;3.25;;;2.67;;
32242;SDS011;18731;42.830;24.390;2023-07-31T11:30:59;5.85;;;3.00;;
32242;SDS011;18731;42.830;24.390;2023-07-31T11:33:25;3.08;;;2.53;;
32242;SDS011;18731;42.830;24.390;2023-07-31T11:35:50;3.25;;;2.75;;
32242;SDS011;18731;42.830;24.390;2023-07-31T11:38:32;5.53;;;2.80;;
32242;SDS011;18731;42.830;24.390;2023-07-31T11:41:02;2.83;;;2.53;;
32242;SDS011;18731;42.830;24.390;2023-07-31T11:43:30;3.55;;;2.67;;
32242;SDS011;18731;42.830;24.390;2023-07-31T11:45:57;2.78;;;2.38;;
32242;SDS011;18731;42.830;24.390;2023-07-31T11:50:52;4.05;;;2.70;;
32242;SDS011;18731;42.830;24.390;2023-07-31T11:56:03;3.72;;;3.20;;
32242;SDS011;18731;42.830;24.390;2023-07-31T11:58:31;4.75;;;2.83;;
32242;SDS011;18731;42.830;24.390;2023-07-31T12:00:59;4.72;;;3.42;;
32242;SDS011;18731;42.830;24.390;2023-07-31T12:03:25;14.30;;;8.07;;
32242;SDS011;18731;42.830;24.390;2023-07-31T12:05:55;21.88;;;9.70;;
32242;SDS011;18731;42.830;24.390;2023-07-31T12:08:21;5.30;;;3.70;;
32242;SDS011;18731;42.830;24.390;2023-07-31T12:10:53;4.35;;;3.13;;
32242;SDS011;18731;42.830;24.390;2023-07-31T12:13:23;5.90;;;3.60;;
32242;SDS011;18731;42.830;24.390;2023-07-31T12:15:55;11.35;;;6.55;;
32242;SDS011;18731;42.830;24.390;2023-07-31T12:18:23;6.75;;;4.55;;
32242;SDS011;18731;42.830;24.390;2023-07-31T12:20:59;11.38;;;7.13;;
32242;SDS011;18731;42.830;24.390;2023-07-31T12:23:33;28.88;;;14.82;;
32242;SDS011;18731;42.830;24.390;2023-07-31T12:28:26;12.40;;;6.60;;
32242;SDS011;18731;42.830;24.390;2023-07-31T12:30:51;10.48;;;5.00;;
32242;SDS011;18731;42.830;24.390;2023-07-31T12:33:21;5.25;;;3.78;;
32242;SDS011;18731;42.830;24.390;2023-07-31T12:35:47;6.28;;;3.50;;
32242;SDS011;18731;42.830;24.390;2023-07-31T12:38:13;3.33;;;2.97;;
32242;SDS011;18731;42.830;24.390;2023-07-31T12:40:39;6.57;;;3.47;;
32242;SDS011;18731;42.830;24.390;2023-07-31T12:43:06;3.88;;;3.20;;
32242;SDS011;18731;42.830;24.390;2023-07-31T12:45:33;3.80;;;3.40;;
32242;SDS011;18731;42.830;24.390;2023-07-31T12:48:01;9.43;;;3.67;;
32242;SDS011;18731;42.830;24.390;2023-07-31T12:50:27;3.75;;;3.45;;
32242;SDS011;18731;42.830;24.390;2023-07-31T12:52:56;4.45;;;3.50;;
32242;SDS011;18731;42.830;24.390;2023-07-31T12:55:22;3.75;;;3.45;;
32242;SDS011;18731;42.830;24.390;2023-07-31T12:57:49;4.13;;;3.70;;
32242;SDS011;18731;42.830;24.390;2023-07-31T13:00:15;4.00;;;3.60;;
32242;SDS011;18731;42.830;24.390;2023-07-31T13:02:41;3.65;;;3.30;;
32242;SDS011;18731;42.830;24.390;2023-07-31T13:05:07;5.47;;;3.97;;
32242;SDS011;18731;42.830;24.390;2023-07-31T13:07:34;5.40;;;3.83;;
32242;SDS011;18731;42.830;24.390;2023-07-31T13:09:59;6.78;;;4.45;;
32242;SDS011;18731;42.830;24.390;2023-07-31T13:12:25;5.10;;;4.03;;
32242;SDS011;18731;42.830;24.390;2023-07-31T13:14:51;6.53;;;4.30;;
32242;SDS011;18731;42.830;24.390;2023-07-31T13:17:17;7.07;;;4.30;;
32242;SDS011;18731;42.830;24.390;2023-07-31T13:19:43;7.88;;;4.25;;
32242;SDS011;18731;42.830;24.390;2023-07-31T13:22:09;8.35;;;4.70;;
32242;SDS011;18731;42.830;24.390;2023-07-31T13:24:34;11.00;;;4.63;;
32242;SDS011;18731;42.830;24.390;2023-07-31T13:27:00;6.80;;;3.60;;
32242;SDS011;18731;42.830;24.390;2023-07-31T13:29:26;6.30;;;3.70;;
32242;SDS011;18731;42.830;24.390;2023-07-31T13:31:52;7.22;;;4.20;;
32242;SDS011;18731;42.830;24.390;2023-07-31T13:34:18;5.70;;;4.22;;
32242;SDS011;18731;42.830;24.390;2023-07-31T13:36:44;4.93;;;3.08;;
32242;SDS011;18731;42.830;24.390;2023-07-31T13:39:10;6.80;;;3.45;;
32242;SDS011;18731;42.830;24.390;2023-07-31T13:41:35;4.50;;;3.00;;
32242;SDS011;18731;42.830;24.390;2023-07-31T13:44:01;8.68;;;3.63;;
32242;SDS011;18731;42.830;24.390;2023-07-31T13:46:27;4.25;;;3.28;;
32242;SDS011;18731;42.830;24.390;2023-07-31T13:48:53;5.47;;;3.25;;
32242;SDS011;18731;42.830;24.390;2023-07-31T13:51:23;6.28;;;3.60;;
32242;SDS011;18731;42.830;24.390;2023-07-31T13:53:52;6.22;;;3.22;;
32242;SDS011;18731;42.830;24.390;2023-07-31T13:56:17;8.15;;;3.70;;
32242;SDS011;18731;42.830;24.390;2023-07-31T13:58:43;8.00;;;3.63;;
32242;SDS011;18731;42.830;24.390;2023-07-31T14:01:09;3.72;;;3.25;;
32242;SDS011;18731;42.830;24.390;2023-07-31T14:03:35;6.45;;;3.17;;
32242;SDS011;18731;42.830;24.390;2023-07-31T14:06:01;7.45;;;3.40;;
32242;SDS011;18731;42.830;24.390;2023-07-31T14:08:26;4.93;;;3.55;;
32242;SDS011;18731;42.830;24.390;2023-07-31T14:10:52;4.60;;;3.42;;
32242;SDS011;18731;42.830;24.390;2023-07-31T14:13:18;3.53;;;3.05;;
32242;SDS011;18731;42.830;24.390;2023-07-31T14:15:43;4.13;;;3.20;;
32242;SDS011;18731;42.830;24.390;2023-07-31T14:18:09;4.22;;;3.15;;
32242;SDS011;18731;42.830;24.390;2023-07-31T14:20:35;4.97;;;2.88;;
32242;SDS011;18731;42.830;24.390;2023-07-31T14:23:01;5.05;;;3.58;;
32242;SDS011;18731;42.830;24.390;2023-07-31T14:25:28;6.13;;;3.28;;
32242;SDS011;18731;42.830;24.390;2023-07-31T14:27:54;2.95;;;2.63;;
32242;SDS011;18731;42.830;24.390;2023-07-31T14:30:19;4.28;;;2.90;;
32242;SDS011;18731;42.830;24.390;2023-07-31T14:32:46;5.95;;;3.30;;
32242;SDS011;18731;42.830;24.390;2023-07-31T14:35:12;8.32;;;3.13;;
32242;SDS011;18731;42.830;24.390;2023-07-31T14:37:41;4.18;;;3.20;;
32242;SDS011;18731;42.830;24.390;2023-07-31T14:40:08;4.10;;;2.67;;
32242;SDS011;18731;42.830;24.390;2023-07-31T14:42:36;3.75;;;3.08;;
32242;SDS011;18731;42.830;24.390;2023-07-31T14:45:03;5.00;;;3.05;;
32242;SDS011;18731;42.830;24.390;2023-07-31T14:47:29;4.72;;;3.25;;
32242;SDS011;18731;42.830;24.390;2023-07-31T14:49:56;2.88;;;2.58;;
32242;SDS011;18731;42.830;24.390;2023-07-31T14:52:22;3.40;;;2.50;;
32242;SDS011;18731;42.830;24.390;2023-07-31T14:54:48;3.22;;;2.60;;
32242;SDS011;18731;42.830;24.390;2023-07-31T14:57:13;8.10;;;3.10;;
32242;SDS011;18731;42.830;24.390;2023-07-31T14:59:39;5.53;;;2.15;;
32242;SDS011;18731;42.830;24.390;2023-07-31T15:02:05;3.42;;;2.42;;
32242;SDS011;18731;42.830;24.390;2023-07-31T15:04:33;4.45;;;2.50;;
32242;SDS011;18731;42.830;24.390;2023-07-31T15:06:59;2.50;;;2.30;;
32242;SDS011;18731;42.830;24.390;2023-07-31T15:09:25;3.53;;;2.40;;
32242;SDS011;18731;42.830;24.390;2023-07-31T15:11:50;2.50;;;2.30;;
32242;SDS011;18731;42.830;24.390;2023-07-31T15:14:16;3.00;;;2.45;;
32242;SDS011;18731;42.830;24.390;2023-07-31T15:16:42;3.45;;;2.55;;
32242;SDS011;18731;42.830;24.390;2023-07-31T15:19:07;2.97;;;2.22;;
32242;SDS011;18731;42.830;24.390;2023-07-31T15:21:33;2.83;;;2.35;;
32242;SDS011;18731;42.830;24.390;2023-07-31T15:23:59;6.57;;;2.50;;
32242;SDS011;18731;42.830;24.390;2023-07-31T15:26:24;5.53;;;2.22;;
32242;SDS011;18731;42.830;24.390;2023-07-31T15:28:55;3.70;;;2.40;;
32242;SDS011;18731;42.830;24.390;2023-07-31T15:31:25;3.08;;;2.60;;
32242;SDS011;18731;42.830;24.390;2023-07-31T15:33:51;2.33;;;2.13;;
32242;SDS011;18731;42.830;24.390;2023-07-31T15:36:17;3.03;;;2.08;;
32242;SDS011;18731;42.830;24.390;2023-07-31T15:38:42;7.25;;;2.63;;
32242;SDS011;18731;42.830;24.390;2023-07-31T15:41:08;2.83;;;2.33;;
32242;SDS011;18731;42.830;24.390;2023-07-31T15:43:34;3.15;;;2.75;;
32242;SDS011;18731;42.830;24.390;2023-07-31T15:46:00;4.05;;;2.33;;
32242;SDS011;18731;42.830;24.390;2023-07-31T15:48:25;3.38;;;2.58;;
32242;SDS011;18731;42.830;24.390;2023-07-31T15:50:51;2.95;;;2.70;;
32242;SDS011;18731;42.830;24.390;2023-07-31T15:53:17;3.95;;;3.03;;
32242;SDS011;18731;42.830;24.390;2023-07-31T15:55:43;4.53;;;3.33;;
32242;SDS011;18731;42.830;24.390;2023-07-31T15:58:08;3.42;;;2.58;;
32242;SDS011;18731;42.830;24.390;2023-07-31T16:00:34;5.72;;;2.78;;
32242;SDS011;18731;42.830;24.390;2023-07-31T16:03:00;3.92;;;2.42;;
32242;SDS011;18731;42.830;24.390;2023-07-31T16:05:25;4.18;;;2.58;;
32242;SDS011;18731;42.830;24.390;2023-07-31T16:07:51;4.10;;;2.70;;
32242;SDS011;18731;42.830;24.390;2023-07-31T16:10:17;3.10;;;2.80;;
32242;SDS011;18731;42.830;24.390;2023-07-31T16:12:42;3.78;;;2.72;;
32242;SDS011;18731;42.830;24.390;2023-07-31T16:15:08;3.20;;;2.90;;
32242;SDS011;18731;42.830;24.390;2023-07-31T16:17:34;4.25;;;2.80;;
32242;SDS011;18731;42.830;24.390;2023-07-31T16:20:00;4.00;;;2.88;;
32242;SDS011;18731;42.830;24.390;2023-07-31T16:22:26;4.57;;;2.83;;
32242;SDS011;18731;42.830;24.390;2023-07-31T16:24:52;3.05;;;2.75;;
32242;SDS011;18731;42.830;24.390;2023-07-31T16:27:18;5.93;;;2.88;;
32242;SDS011;18731;42.830;24.390;2023-07-31T16:29:45;4.28;;;3.25;;
32242;SDS011;18731;42.830;24.390;2023-07-31T16:32:11;3.38;;;2.72;;
32242;SDS011;18731;42.830;24.390;2023-07-31T16:34:37;3.70;;;2.70;;
32242;SDS011;18731;42.830;24.390;2023-07-31T16:37:03;5.18;;;3.20;;
32242;SDS011;18731;42.830;24.390;2023-07-31T16:39:29;3.92;;;3.50;;
32242;SDS011;18731;42.830;24.390;2023-07-31T16:42:00;4.53;;;2.90;;
32242;SDS011;18731;42.830;24.390;2023-07-31T16:44:27;7.35;;;3.50;;
32242;SDS011;18731;42.830;24.390;2023-07-31T16:46:53;7.72;;;3.20;;
32242;SDS011;18731;42.830;24.390;2023-07-31T16:49:19;5.40;;;3.10;;
32242;SDS011;18731;42.830;24.390;2023-07-31T16:51:46;7.97;;;3.20;;
32242;SDS011;18731;42.830;24.390;2023-07-31T16:54:13;4.35;;;2.88;;
32242;SDS011;18731;42.830;24.390;2023-07-31T16:56:38;4.85;;;3.42;;
32242;SDS011;18731;42.830;24.390;2023-07-31T16:59:04;4.07;;;3.13;;
32242;SDS011;18731;42.830;24.390;2023-07-31T17:01:30;8.30;;;3.58;;
32242;SDS011;18731;42.830;24.390;2023-07-31T17:03:58;5.55;;;3.20;;
32242;SDS011;18731;42.830;24.390;2023-07-31T17:06:27;4.78;;;3.53;;
32242;SDS011;18731;42.830;24.390;2023-07-31T17:08:53;4.75;;;3.45;;
32242;SDS011;18731;42.830;24.390;2023-07-31T17:11:19;3.60;;;3.10;;
32242;SDS011;18731;42.830;24.390;2023-07-31T17:13:44;8.68;;;3.45;;
32242;SDS011;18731;42.830;24.390;2023-07-31T17:16:10;4.57;;;3.40;;
32242;SDS011;18731;42.830;24.390;2023-07-31T17:18:36;8.63;;;3.53;;
32242;SDS011;18731;42.830;24.390;2023-07-31T17:21:01;7.82;;;3.42;;
32242;SDS011;18731;42.830;24.390;2023-07-31T17:23:27;5.00;;;4.00;;
32242;SDS011;18731;42.830;24.390;2023-07-31T17:25:53;7.50;;;3.72;;
32242;SDS011;18731;42.830;24.390;2023-07-31T17:28:19;5.38;;;3.58;;
32242;SDS011;18731;42.830;24.390;2023-07-31T17:30:45;9.30;;;4.07;;
32242;SDS011;18731;42.830;24.390;2023-07-31T17:33:13;4.57;;;3.58;;
32242;SDS011;18731;42.830;24.390;2023-07-31T17:35:39;5.63;;;3.50;;